Time;durP1;ratioP1;P1;durP2;ratioP2;P2;SDS_P1;SDS_P2;PMS_P1;PMS_P2;Temp;Humidity;BMP_temperature;BMP_pressure;BME280_temperature;BME280_humidity;BME280_pressure;Samples;Min_cycle;Max_cycle;Signal;HPM_P1;HPM_P2
2022/08/28 00:00:17;;;;;;;9.07;8.38;;;22.20;87.30;;;;;;5026205;28;20337;-87
2022/08/28 00:02:45;;;;;;;9.32;8.57;;;22.20;87.60;;;;;;5025675;28;20193;-87
2022/08/28 00:05:12;;;;;;;8.70;7.90;;;22.10;87.70;;;;;;5025977;28;20192;-86
2022/08/28 00:07:38;;;;;;;9.00;8.10;;;22.10;87.80;;;;;;5023572;28;20199;-86
2022/08/28 00:10:06;;;;;;;9.32;8.52;;;22.00;87.60;;;;;;5023059;28;20189;-86
2022/08/28 00:12:32;;;;;;;9.70;8.90;;;22.00;88.00;;;;;;5028193;28;20247;-86
2022/08/28 00:14:58;;;;;;;8.75;8.10;;;21.90;88.60;;;;;;5023396;28;20667;-86
2022/08/28 00:17:24;;;;;;;9.18;8.48;;;21.90;88.60;;;;;;5028760;28;20213;-87
2022/08/28 00:19:49;;;;;;;9.13;8.43;;;21.80;88.90;;;;;;5028672;28;20216;-87
2022/08/28 00:22:15;;;;;;;9.48;8.70;;;21.80;89.60;;;;;;5031916;28;20248;-87
2022/08/28 00:24:43;;;;;;;9.90;9.02;;;21.80;89.40;;;;;;5032495;28;20225;-87
2022/08/28 00:29:53;;;;;;;8.90;8.20;;;21.70;90.10;;;;;;5032979;28;20567;-87
2022/08/28 00:32:22;;;;;;;8.48;7.88;;;21.70;89.70;;;;;;5021172;28;20673;-87
2022/08/28 00:34:48;;;;;;;8.50;7.80;;;21.80;89.90;;;;;;5022566;28;20192;-87
2022/08/28 00:37:19;;;;;;;9.00;8.30;;;21.70;89.60;;;;;;5026263;28;20189;-87
2022/08/28 00:39:46;;;;;;;8.82;8.20;;;21.80;89.80;;;;;;5030279;28;20755;-87
2022/08/28 00:42:12;;;;;;;9.07;8.35;;;21.90;89.60;;;;;;5028782;28;20484;-87
2022/08/28 00:44:38;;;;;;;8.45;7.75;;;21.90;90.00;;;;;;5032604;28;20350;-87
2022/08/28 00:47:04;;;;;;;9.00;8.30;;;21.80;90.30;;;;;;5024744;28;20670;-87
2022/08/28 00:49:32;;;;;;;9.50;8.57;;;21.60;91.20;;;;;;5023893;28;20204;-87
2022/08/28 00:52:07;;;;;;;9.48;8.70;;;21.50;92.00;;;;;;5026155;28;20455;-87
2022/08/28 00:55:03;;;;;;;9.73;8.93;;;21.40;92.30;;;;;;5028555;28;20195;-87
2022/08/28 00:57:43;;;;;;;10.15;9.30;;;21.30;92.30;;;;;;5021856;28;20204;-87
2022/08/28 01:00:20;;;;;;;10.05;9.15;;;21.30;92.00;;;;;;5026482;28;20196;-87
2022/08/28 01:02:45;;;;;;;10.05;9.05;;;21.30;92.20;;;;;;5029513;28;20235;-87
2022/08/28 01:05:14;;;;;;;9.68;8.80;;;21.20;93.10;;;;;;5025578;28;20220;-87
2022/08/28 01:07:41;;;;;;;11.05;10.05;;;21.10;93.30;;;;;;5022266;28;20551;-87
2022/08/28 01:10:11;;;;;;;9.57;8.88;;;21.10;93.30;;;;;;5023178;28;20216;-87
2022/08/28 01:12:37;;;;;;;9.65;8.82;;;21.10;94.10;;;;;;5027070;28;20204;-87
2022/08/28 01:15:10;;;;;;;10.40;9.48;;;21.10;94.00;;;;;;5026083;28;20185;-87
2022/08/28 01:17:40;;;;;;;10.25;9.43;;;21.10;93.30;;;;;;5029904;28;20185;-87
2022/08/28 01:20:10;;;;;;;10.02;9.07;;;21.00;93.80;;;;;;5030979;28;21502;-87
2022/08/28 01:22:49;;;;;;;9.98;9.18;;;21.10;93.90;;;;;;5020898;28;20197;-87
2022/08/28 01:25:21;;;;;;;9.73;8.90;;;21.10;94.40;;;;;;5020130;28;20180;-87
2022/08/28 01:27:46;;;;;;;10.02;9.23;;;21.20;94.10;;;;;;5021925;28;20196;-87
2022/08/28 01:30:15;;;;;;;9.55;8.82;;;21.20;93.50;;;;;;5030225;28;20235;-87
2022/08/28 01:32:46;;;;;;;8.98;8.27;;;21.30;93.30;;;;;;5026994;28;20616;-87
2022/08/28 01:35:17;;;;;;;10.20;9.40;;;21.50;92.70;;;;;;5027046;28;20718;-87
2022/08/28 01:37:43;;;;;;;9.02;8.32;;;21.50;92.70;;;;;;5027772;28;20530;-87
2022/08/28 01:40:11;;;;;;;9.55;8.70;;;21.50;93.10;;;;;;5022867;28;20722;-87
2022/08/28 01:42:41;;;;;;;8.73;8.02;;;21.50;92.90;;;;;;5024678;28;20264;-87
2022/08/28 01:45:10;;;;;;;9.07;8.32;;;21.60;93.00;;;;;;5019150;28;20197;-87
2022/08/28 01:47:37;;;;;;;9.20;8.50;;;21.60;92.90;;;;;;5021255;28;20208;-87
2022/08/28 01:50:06;;;;;;;10.13;9.25;;;21.50;93.30;;;;;;5023439;28;20208;-87
2022/08/28 01:52:32;;;;;;;9.55;8.75;;;21.40;92.60;;;;;;5024187;28;20702;-86
2022/08/28 01:54:58;;;;;;;9.60;8.68;;;21.40;93.20;;;;;;5027244;28;20688;-87
2022/08/28 01:57:23;;;;;;;9.90;9.07;;;21.20;93.90;;;;;;5023880;28;20217;-87
2022/08/28 01:59:50;;;;;;;9.15;8.35;;;21.30;93.80;;;;;;5021183;28;20529;-87
2022/08/28 02:02:16;;;;;;;9.50;8.70;;;21.40;93.70;;;;;;5020329;28;20210;-87
2022/08/28 02:04:42;;;;;;;8.85;8.15;;;21.30;93.40;;;;;;5022724;28;20358;-87
2022/08/28 02:07:07;;;;;;;9.23;8.52;;;21.30;93.90;;;;;;5024153;28;20608;-87
2022/08/28 02:09:34;;;;;;;9.30;8.23;;;21.30;93.90;;;;;;5027190;28;20200;-87
2022/08/28 02:12:00;;;;;;;8.68;7.95;;;21.40;92.90;;;;;;5021128;28;20221;-86
2022/08/28 02:14:25;;;;;;;8.48;7.78;;;21.30;92.20;;;;;;5026898;28;20216;-87
2022/08/28 02:16:51;;;;;;;9.05;8.25;;;21.30;92.60;;;;;;5027089;28;20239;-86
2022/08/28 02:19:17;;;;;;;8.85;8.15;;;21.30;92.50;;;;;;5019466;28;20186;-87
2022/08/28 02:21:43;;;;;;;7.90;7.30;;;21.30;91.50;;;;;;5022485;28;20209;-87
2022/08/28 02:24:08;;;;;;;8.60;8.00;;;21.40;91.80;;;;;;5029228;28;20602;-87
2022/08/28 02:26:34;;;;;;;8.10;7.43;;;21.50;91.40;;;;;;5027350;28;20189;-86
2022/08/28 02:29:00;;;;;;;8.38;7.70;;;21.50;91.00;;;;;;5028663;28;20189;-87
2022/08/28 02:31:26;;;;;;;8.43;7.72;;;21.50;90.60;;;;;;5030494;28;20205;-87
2022/08/28 02:33:52;;;;;;;8.32;7.60;;;21.60;90.30;;;;;;5030380;28;20205;-87
2022/08/28 02:36:17;;;;;;;8.00;7.40;;;21.60;90.30;;;;;;5027520;28;20192;-87
2022/08/28 02:38:44;;;;;;;7.45;6.85;;;21.60;89.80;;;;;;5027079;28;20204;-87
2022/08/28 02:41:11;;;;;;;8.52;7.90;;;21.60;89.70;;;;;;5030124;28;20213;-87
2022/08/28 02:43:36;;;;;;;8.57;7.88;;;21.50;90.00;;;;;;5023303;28;20189;-87
2022/08/28 02:46:03;;;;;;;8.23;7.53;;;21.50;90.20;;;;;;5025821;28;20192;-87
2022/08/28 02:48:31;;;;;;;8.23;7.53;;;21.50;89.80;;;;;;5033345;28;20894;-87
2022/08/28 02:51:03;;;;;;;8.52;7.85;;;21.60;89.50;;;;;;5028559;28;20232;-87
2022/08/28 02:53:29;;;;;;;8.65;8.00;;;21.50;89.60;;;;;;5029517;28;20204;-87
2022/08/28 02:55:56;;;;;;;7.97;7.25;;;21.40;89.90;;;;;;5029801;28;20188;-87
2022/08/28 02:58:22;;;;;;;8.02;7.32;;;21.40;89.40;;;;;;5022070;28;20257;-87
2022/08/28 03:00:48;;;;;;;7.90;7.20;;;21.40;89.20;;;;;;5022508;28;20478;-87
2022/08/28 03:03:14;;;;;;;8.45;7.70;;;21.50;89.60;;;;;;5035484;28;20177;-87
2022/08/28 03:05:40;;;;;;;8.18;7.38;;;21.50;89.50;;;;;;5030160;28;20248;-87
2022/08/28 03:08:06;;;;;;;8.48;7.68;;;21.50;89.30;;;;;;5025928;28;20191;-87
2022/08/28 03:10:31;;;;;;;8.15;7.45;;;21.50;89.30;;;;;;5031051;28;20299;-87
2022/08/28 03:12:57;;;;;;;7.63;7.03;;;21.50;90.10;;;;;;5029087;28;20216;-87
2022/08/28 03:15:23;;;;;;;8.30;7.60;;;21.60;88.80;;;;;;5029478;28;20219;-87
2022/08/28 03:17:48;;;;;;;7.90;7.20;;;21.60;89.50;;;;;;5033550;28;20275;-87
2022/08/28 03:20:15;;;;;;;7.93;7.22;;;21.60;89.40;;;;;;5029599;28;20248;-87
2022/08/28 03:25:26;;;;;;;7.50;6.90;;;21.60;89.40;;;;;;5021986;28;20230;-87
2022/08/28 03:27:52;;;;;;;8.80;7.93;;;21.60;90.10;;;;;;5029321;28;20199;-87
2022/08/28 03:30:20;;;;;;;7.28;6.68;;;21.60;90.00;;;;;;5032874;28;20216;-87
2022/08/28 03:32:45;;;;;;;7.85;7.25;;;21.60;90.00;;;;;;5031523;28;20196;-87
2022/08/28 03:35:11;;;;;;;8.15;7.55;;;21.60;89.80;;;;;;5017348;28;20189;-87
2022/08/28 03:37:37;;;;;;;8.13;7.45;;;21.60;90.50;;;;;;5026912;28;20300;-87
2022/08/28 03:40:05;;;;;;;8.00;7.40;;;21.50;90.70;;;;;;5020603;28;20181;-87
2022/08/28 03:42:30;;;;;;;7.88;7.25;;;21.50;91.10;;;;;;5026951;28;20192;-87
2022/08/28 03:44:56;;;;;;;8.00;7.30;;;21.50;91.20;;;;;;5025230;28;20199;-87
2022/08/28 03:47:23;;;;;;;8.95;8.02;;;21.50;91.40;;;;;;5033089;28;20189;-87
2022/08/28 03:49:54;;;;;;;7.90;7.30;;;21.40;91.90;;;;;;5024862;28;20189;-87
2022/08/28 03:52:20;;;;;;;7.65;7.07;;;21.40;91.70;;;;;;5024816;28;20220;-87
2022/08/28 03:54:46;;;;;;;8.15;7.32;;;21.40;91.90;;;;;;5009667;28;20283;-87
2022/08/28 03:57:17;;;;;;;8.27;7.57;;;21.30;92.20;;;;;;5026373;28;20196;-86
2022/08/28 03:59:43;;;;;;;8.10;7.30;;;21.30;92.40;;;;;;5032232;28;20271;-87
2022/08/28 04:02:09;;;;;;;7.40;6.78;;;21.30;92.50;;;;;;5025918;28;20324;-86
2022/08/28 04:04:34;;;;;;;8.10;7.38;;;21.40;92.40;;;;;;5023661;28;20544;-87
2022/08/28 04:07:00;;;;;;;8.23;7.43;;;21.40;92.30;;;;;;5022888;28;20192;-87
2022/08/28 04:09:25;;;;;;;8.43;7.55;;;21.40;92.30;;;;;;5032307;28;20303;-87
2022/08/28 04:11:52;;;;;;;8.45;7.75;;;21.30;91.60;;;;;;5024620;28;20220;-87
2022/08/28 04:14:18;;;;;;;8.45;7.85;;;21.30;91.10;;;;;;5021880;28;20283;-87
2022/08/28 04:16:43;;;;;;;8.43;7.78;;;21.20;91.80;;;;;;5020346;28;20269;-87
2022/08/28 04:19:09;;;;;;;8.73;7.93;;;21.20;92.20;;;;;;5027803;28;20201;-87
2022/08/28 04:21:35;;;;;;;8.25;7.53;;;21.20;91.80;;;;;;5024800;28;20262;-87
2022/08/28 04:24:00;;;;;;;8.15;7.55;;;21.20;92.10;;;;;;5024655;28;20190;-87
2022/08/28 04:26:26;;;;;;;8.27;7.68;;;21.30;92.00;;;;;;5020315;28;20236;-87
2022/08/28 04:28:53;;;;;;;8.40;7.60;;;21.30;91.40;;;;;;5030441;28;20221;-87
2022/08/28 04:31:19;;;;;;;8.20;7.60;;;21.30;90.70;;;;;;5027755;28;20205;-87
2022/08/28 04:33:44;;;;;;;8.55;7.70;;;21.40;90.90;;;;;;5027748;28;20205;-86
2022/08/28 04:36:16;;;;;;;8.30;7.70;;;21.40;90.90;;;;;;5023487;28;20664;-86
2022/08/28 04:38:42;;;;;;;8.70;7.90;;;21.50;90.30;;;;;;5023159;28;20641;-87
2022/08/28 04:41:10;;;;;;;8.20;7.40;;;21.40;90.20;;;;;;5027519;28;20236;-86
2022/08/28 04:43:36;;;;;;;8.07;7.32;;;21.40;89.70;;;;;;5026282;28;20215;-87
2022/08/28 04:46:07;;;;;;;8.15;7.38;;;21.50;89.70;;;;;;5023785;28;20186;-87
2022/08/28 04:48:37;;;;;;;8.00;7.30;;;21.50;89.90;;;;;;5028972;28;20242;-86
2022/08/28 04:51:05;;;;;;;8.18;7.63;;;21.50;89.40;;;;;;5025259;28;20221;-87
2022/08/28 04:53:32;;;;;;;8.65;7.85;;;21.50;89.50;;;;;;5023112;28;20208;-87
2022/08/28 04:55:59;;;;;;;8.15;7.53;;;21.40;90.20;;;;;;5023473;28;20644;-87
2022/08/28 04:58:25;;;;;;;10.02;7.70;;;21.40;90.80;;;;;;5026431;28;20591;-87
2022/08/28 05:00:52;;;;;;;8.10;7.38;;;21.50;90.40;;;;;;5021520;28;20300;-87
2022/08/28 05:03:18;;;;;;;8.35;7.57;;;21.40;89.60;;;;;;5023386;28;20185;-87
2022/08/28 05:05:46;;;;;;;8.15;7.35;;;21.40;89.50;;;;;;5025014;28;20189;-87
2022/08/28 05:08:13;;;;;;;7.93;7.32;;;21.40;89.60;;;;;;5026747;28;20211;-87
2022/08/28 05:10:40;;;;;;;8.07;7.28;;;21.40;89.30;;;;;;5025925;28;20255;-87
2022/08/28 05:13:07;;;;;;;7.72;7.03;;;21.40;88.70;;;;;;5022312;28;20252;-87
2022/08/28 05:15:37;;;;;;;7.57;6.88;;;21.30;89.30;;;;;;5027352;28;20181;-87
2022/08/28 05:18:02;;;;;;;6.70;6.20;;;21.40;89.50;;;;;;5018539;28;20256;-87
2022/08/28 05:20:28;;;;;;;7.18;6.68;;;21.40;88.70;;;;;;5029722;28;20209;-85
2022/08/28 05:22:54;;;;;;;7.97;7.18;;;21.40;89.60;;;;;;5030530;28;20200;-87
2022/08/28 05:25:19;;;;;;;7.43;6.82;;;21.40;89.00;;;;;;5024330;28;20209;-87
2022/08/28 05:27:45;;;;;;;7.97;7.20;;;21.40;90.00;;;;;;5027901;28;20553;-87
2022/08/28 05:30:11;;;;;;;8.02;7.43;;;21.40;89.40;;;;;;5025485;28;20560;-87
2022/08/28 05:32:37;;;;;;;8.38;7.70;;;21.30;89.90;;;;;;5021428;28;20224;-87
2022/08/28 05:35:03;;;;;;;8.50;7.38;;;21.20;89.60;;;;;;5026435;28;20178;-87
2022/08/28 05:37:28;;;;;;;8.02;7.32;;;21.20;90.00;;;;;;5029612;28;20196;-87
2022/08/28 05:39:54;;;;;;;8.20;7.40;;;21.20;89.90;;;;;;5019457;28;20185;-87
2022/08/28 05:42:20;;;;;;;8.23;7.45;;;21.10;90.10;;;;;;5023528;28;20276;-87
2022/08/28 05:44:46;;;;;;;8.30;7.70;;;21.10;90.20;;;;;;5026482;28;20197;-87
2022/08/28 05:47:11;;;;;;;9.52;8.27;;;21.20;90.50;;;;;;5030152;28;20192;-87
2022/08/28 05:49:37;;;;;;;7.70;7.10;;;21.20;89.80;;;;;;5019174;28;20185;-87
2022/08/28 05:52:03;;;;;;;8.30;7.43;;;21.20;90.00;;;;;;5026761;28;20220;-87
2022/08/28 05:54:29;;;;;;;7.57;6.85;;;21.20;90.20;;;;;;5025584;28;20193;-87
2022/08/28 05:56:54;;;;;;;7.30;6.70;;;21.30;89.70;;;;;;5034709;28;20192;-86
2022/08/28 05:59:20;;;;;;;7.75;7.15;;;21.30;90.00;;;;;;5025512;28;20185;-87
2022/08/28 06:01:47;;;;;;;7.95;6.57;;;21.30;88.80;;;;;;5037785;28;20205;-87
2022/08/28 06:04:21;;;;;;;7.57;7.00;;;21.20;89.80;;;;;;5029617;28;20251;-85
2022/08/28 06:06:48;;;;;;;8.05;7.25;;;21.20;89.10;;;;;;5029645;28;20221;-87
2022/08/28 06:09:19;;;;;;;6.93;6.25;;;21.10;89.80;;;;;;5025785;28;20192;-86
2022/08/28 06:11:46;;;;;;;7.13;6.50;;;21.00;90.00;;;;;;5019881;28;20355;-86
2022/08/28 06:14:13;;;;;;;7.45;6.53;;;21.00;89.90;;;;;;5024340;28;20221;-86
2022/08/28 06:16:41;;;;;;;8.13;6.63;;;21.10;89.90;;;;;;5022520;28;20560;-86
2022/08/28 06:19:09;;;;;;;7.43;6.82;;;21.10;89.80;;;;;;5030319;28;20874;-87
2022/08/28 06:21:36;;;;;;;7.57;6.95;;;21.00;89.90;;;;;;5026531;28;20299;-87
2022/08/28 06:24:03;;;;;;;7.97;7.20;;;21.00;90.00;;;;;;5024460;28;20235;-87
2022/08/28 06:26:28;;;;;;;6.88;6.28;;;21.00;90.70;;;;;;5022852;28;20196;-87
2022/08/28 06:28:59;;;;;;;6.75;6.25;;;21.10;89.60;;;;;;5025196;28;20189;-87
2022/08/28 06:31:25;;;;;;;7.13;6.47;;;21.20;89.10;;;;;;5032475;28;20204;-86
2022/08/28 06:33:55;;;;;;;7.75;6.38;;;21.20;89.20;;;;;;5026323;28;20213;-87
2022/08/28 06:36:22;;;;;;;7.18;6.47;;;21.30;88.50;;;;;;5025237;28;20185;-87
2022/08/28 06:38:48;;;;;;;7.80;7.13;;;21.30;88.00;;;;;;5025651;28;20722;-87
2022/08/28 06:41:14;;;;;;;7.55;6.78;;;21.20;88.00;;;;;;5025627;28;20212;-85
2022/08/28 06:43:40;;;;;;;8.05;7.35;;;21.30;88.90;;;;;;5026402;28;20564;-88
2022/08/28 06:46:06;;;;;;;6.93;6.32;;;21.30;88.00;;;;;;5029059;28;20652;-87
2022/08/28 06:48:31;;;;;;;7.03;6.18;;;21.40;87.70;;;;;;5027240;28;20235;-87
2022/08/28 06:50:58;;;;;;;7.13;6.38;;;21.40;87.60;;;;;;5026690;28;20224;-84
2022/08/28 06:53:27;;;;;;;6.95;6.25;;;21.40;86.70;;;;;;5029231;28;20564;-87
2022/08/28 06:55:56;;;;;;;7.22;6.63;;;21.40;87.40;;;;;;5026981;28;20185;-87
2022/08/28 06:58:22;;;;;;;10.13;6.22;;;21.20;87.00;;;;;;5036412;28;20185;-86
2022/08/28 07:00:49;;;;;;;7.55;6.70;;;21.10;87.20;;;;;;5028297;28;20612;-85
2022/08/28 07:03:15;;;;;;;6.68;6.15;;;21.20;87.00;;;;;;5028973;28;20264;-86
2022/08/28 07:05:41;;;;;;;6.45;5.93;;;21.20;87.80;;;;;;5027855;28;20274;-86
2022/08/28 07:08:06;;;;;;;8.35;6.95;;;21.20;87.10;;;;;;5025955;28;20252;-87
2022/08/28 07:10:32;;;;;;;6.93;6.30;;;21.20;87.30;;;;;;5030490;28;20212;-86
2022/08/28 07:12:59;;;;;;;6.03;5.63;;;21.30;87.50;;;;;;5027978;28;20205;-86
2022/08/28 07:15:25;;;;;;;6.68;6.07;;;21.40;86.80;;;;;;5034062;28;20565;-86
2022/08/28 07:17:51;;;;;;;7.28;6.65;;;21.40;87.00;;;;;;5027852;28;20181;-85
2022/08/28 07:20:17;;;;;;;6.82;6.30;;;21.30;86.60;;;;;;5026174;28;20597;-85
2022/08/28 07:22:42;;;;;;;8.02;6.25;;;21.40;86.50;;;;;;5029591;28;20195;-86
2022/08/28 07:25:09;;;;;;;7.40;6.78;;;21.50;86.00;;;;;;5030686;28;20181;-86
2022/08/28 07:27:36;;;;;;;6.95;6.35;;;21.40;86.50;;;;;;5032404;28;20177;-86
2022/08/28 07:30:02;;;;;;;8.20;6.07;;;21.50;86.50;;;;;;5020132;28;20193;-86
2022/08/28 07:32:28;;;;;;;7.60;6.20;;;21.30;87.50;;;;;;5022109;28;20215;-86
2022/08/28 07:34:55;;;;;;;6.57;6.07;;;21.30;87.00;;;;;;5022234;28;20189;-86
2022/08/28 07:37:21;;;;;;;7.72;5.95;;;21.30;85.90;;;;;;5036176;28;20208;-86
2022/08/28 07:39:47;;;;;;;6.65;6.15;;;21.50;86.40;;;;;;5036022;28;20181;-86
2022/08/28 07:44:47;;;;;;;7.35;6.65;;;21.60;85.50;;;;;;5032436;28;20228;-86
2022/08/28 07:44:58;;;;;;;7.85;7.15;;;21.70;85.30;;;;;;5029885;28;20268;-86
2022/08/28 07:47:29;;;;;;;6.70;6.20;;;21.80;84.60;;;;;;5032394;28;20231;-87
2022/08/28 07:49:55;;;;;;;7.57;6.10;;;21.90;84.10;;;;;;5020481;28;20783;-86
2022/08/28 07:52:21;;;;;;;7.18;6.57;;;22.00;83.40;;;;;;5025535;28;20600;-86
2022/08/28 07:54:47;;;;;;;7.03;6.43;;;22.00;83.00;;;;;;5028673;28;20640;-87
2022/08/28 07:57:14;;;;;;;7.75;6.60;;;22.10;84.60;;;;;;5026952;28;20177;-87
2022/08/28 07:59:41;;;;;;;7.00;6.30;;;22.10;82.80;;;;;;5033268;28;20196;-87
2022/08/28 08:02:10;;;;;;;7.50;6.80;;;22.00;83.60;;;;;;5022795;28;20635;-87
2022/08/28 08:04:36;;;;;;;7.65;6.78;;;21.90;84.60;;;;;;5021502;28;20229;-87
2022/08/28 08:07:03;;;;;;;8.65;6.97;;;21.90;84.80;;;;;;5029128;28;20227;-87
2022/08/28 08:09:28;;;;;;;7.85;7.20;;;22.00;84.50;;;;;;5024623;28;20182;-86
2022/08/28 08:11:56;;;;;;;8.50;7.63;;;22.00;83.60;;;;;;5028542;28;20219;-86
2022/08/28 08:14:22;;;;;;;8.23;6.97;;;22.00;84.00;;;;;;5028392;28;20611;-86
2022/08/28 08:16:48;;;;;;;7.07;6.47;;;22.10;83.00;;;;;;5025614;28;20190;-86
2022/08/28 08:19:15;;;;;;;7.32;6.60;;;22.30;82.90;;;;;;5028186;28;20247;-85
2022/08/28 08:21:43;;;;;;;7.85;7.10;;;22.40;81.90;;;;;;5026676;28;20533;-85
2022/08/28 08:24:10;;;;;;;7.38;6.78;;;22.50;82.50;;;;;;5028256;28;20732;-86
2022/08/28 08:26:36;;;;;;;8.15;7.28;;;22.60;81.80;;;;;;5022037;28;20181;-86
2022/08/28 08:29:02;;;;;;;8.35;7.45;;;22.60;81.90;;;;;;5032627;28;20193;-86
2022/08/28 08:31:32;;;;;;;8.50;7.68;;;22.60;81.50;;;;;;5032402;28;20212;-85
2022/08/28 08:34:03;;;;;;;7.93;7.13;;;22.70;80.20;;;;;;5022779;28;20220;-86
2022/08/28 08:36:31;;;;;;;11.57;7.65;;;22.50;81.10;;;;;;5025840;28;20177;-85
2022/08/28 08:38:58;;;;;;;9.07;7.72;;;22.60;80.50;;;;;;5020176;28;20544;-85
2022/08/28 08:41:38;;;;;;;8.77;7.97;;;22.80;79.60;;;;;;5031382;28;20201;-85
2022/08/28 08:44:15;;;;;;;8.05;7.30;;;22.90;80.00;;;;;;5024538;28;20555;-85
2022/08/28 08:46:48;;;;;;;8.27;7.68;;;23.00;78.90;;;;;;5033918;28;20276;-86
2022/08/28 08:49:21;;;;;;;9.18;7.55;;;23.20;77.80;;;;;;5026907;28;20289;-86
2022/08/28 08:52:15;;;;;;;8.48;7.68;;;23.20;77.90;;;;;;5028053;28;20217;-86
2022/08/28 08:54:49;;;;;;;7.75;7.03;;;23.30;75.90;;;;;;5032503;28;20188;-86
2022/08/28 08:57:15;;;;;;;8.05;7.40;;;23.30;76.50;;;;;;5030899;28;20644;-86
2022/08/28 08:59:41;;;;;;;7.90;7.20;;;23.30;76.90;;;;;;5025183;28;20200;-85
2022/08/28 09:02:13;;;;;;;7.75;7.15;;;23.30;76.40;;;;;;5033521;28;20209;-86
2022/08/28 09:04:52;;;;;;;8.13;7.45;;;23.40;77.00;;;;;;5025393;28;20207;-86
2022/08/28 09:07:25;;;;;;;9.85;7.72;;;23.50;76.90;;;;;;5026235;28;20212;-85
2022/08/28 09:09:53;;;;;;;8.23;7.53;;;23.90;73.70;;;;;;5029246;28;20193;-86
2022/08/28 09:12:23;;;;;;;8.68;7.97;;;24.10;73.90;;;;;;5026227;28;20231;-86
2022/08/28 09:15:04;;;;;;;9.40;8.52;;;24.00;74.50;;;;;;5026719;28;20243;-86
2022/08/28 09:17:51;;;;;;;8.18;7.47;;;24.00;73.40;;;;;;5031016;28;20187;-86
2022/08/28 09:20:24;;;;;;;8.77;8.07;;;24.20;71.80;;;;;;5026626;28;20274;-85
2022/08/28 09:22:49;;;;;;;8.50;7.72;;;24.30;72.40;;;;;;5014748;28;20253;-86
2022/08/28 09:25:43;;;;;;;8.05;7.43;;;24.30;72.30;;;;;;5032162;28;20227;-86
2022/08/28 09:28:13;;;;;;;8.88;8.05;;;24.30;72.80;;;;;;5032177;28;20187;-86
2022/08/28 09:30:40;;;;;;;8.57;7.82;;;24.10;71.20;;;;;;5032897;28;20303;-86
2022/08/28 09:33:06;;;;;;;8.27;7.65;;;24.20;71.70;;;;;;5027477;28;20211;-86
2022/08/28 09:35:36;;;;;;;8.50;7.70;;;24.30;71.80;;;;;;5027657;28;20184;-86
2022/08/28 09:38:22;;;;;;;7.97;7.22;;;24.30;71.20;;;;;;5019698;28;20196;-86
2022/08/28 09:43:34;;;;;;;7.90;7.32;;;24.20;70.90;;;;;;5013226;28;20184;-86
2022/08/28 09:46:28;;;;;;;8.27;7.47;;;24.20;70.30;;;;;;5027711;28;20219;-86
2022/08/28 09:49:12;;;;;;;8.55;7.85;;;24.20;70.80;;;;;;5019664;28;20200;-86
2022/08/28 09:51:38;;;;;;;8.48;7.80;;;24.40;70.70;;;;;;5023922;28;20263;-86
2022/08/28 09:54:17;;;;;;;8.80;8.00;;;24.40;70.60;;;;;;5031462;28;20208;-86
2022/08/28 09:56:44;;;;;;;8.05;7.35;;;24.60;69.80;;;;;;5026352;28;20189;-86
2022/08/28 09:59:14;;;;;;;8.93;8.02;;;24.90;68.00;;;;;;5026840;28;20204;-86
2022/08/28 10:01:48;;;;;;;8.25;7.55;;;25.30;65.90;;;;;;5016007;28;20220;-86
2022/08/28 10:04:16;;;;;;;9.73;7.90;;;25.70;65.90;;;;;;5021875;28;20687;-86
2022/08/28 10:07:05;;;;;;;8.68;8.00;;;25.60;64.00;;;;;;5020112;28;20194;-86
2022/08/28 10:09:48;;;;;;;7.97;7.28;;;25.40;65.60;;;;;;4995065;28;20200;-87
2022/08/28 10:12:39;;;;;;;9.02;8.13;;;25.40;67.00;;;;;;5030120;28;20217;-86
2022/08/28 10:15:14;;;;;;;8.43;7.78;;;25.30;66.80;;;;;;5026818;28;20185;-86
2022/08/28 10:18:09;;;;;;;8.80;8.00;;;25.10;66.70;;;;;;5019343;28;20181;-86
2022/08/28 10:20:47;;;;;;;8.85;7.32;;;25.10;66.50;;;;;;5025161;28;20664;-86
2022/08/28 10:23:23;;;;;;;9.00;8.30;;;25.10;67.30;;;;;;5027660;28;20660;-86
2022/08/28 10:25:58;;;;;;;8.20;7.53;;;25.30;64.70;;;;;;5030879;28;20224;-86
2022/08/28 10:28:45;;;;;;;8.02;7.45;;;25.60;64.40;;;;;;5031114;28;20188;-85
2022/08/28 10:31:41;;;;;;;9.75;8.90;;;25.70;63.10;;;;;;5031312;28;20738;-85
2022/08/28 10:34:20;;;;;;;8.90;8.07;;;25.50;64.00;;;;;;5021945;28;20193;-85
2022/08/28 10:36:55;;;;;;;14.18;9.07;;;25.50;64.50;;;;;;5017966;28;20607;-86
2022/08/28 10:39:38;;;;;;;9.65;8.48;;;25.70;63.30;;;;;;5024087;28;20177;-86
2022/08/28 10:42:05;;;;;;;8.45;7.85;;;25.90;61.20;;;;;;5026681;28;20208;-85
2022/08/28 10:44:48;;;;;;;8.15;7.45;;;26.00;62.20;;;;;;5031686;28;20189;-85
2022/08/28 10:47:16;;;;;;;8.25;7.65;;;25.90;61.80;;;;;;5032631;28;20185;-88
2022/08/28 10:49:46;;;;;;;8.18;7.57;;;25.80;62.70;;;;;;5029390;28;20189;-85
2022/08/28 10:52:15;;;;;;;9.10;8.20;;;26.00;62.90;;;;;;5022591;28;20338;-85
2022/08/28 10:55:00;;;;;;;7.95;7.25;;;26.10;61.30;;;;;;5028117;28;20188;-86
2022/08/28 10:57:34;;;;;;;8.90;8.00;;;26.30;60.50;;;;;;5031695;28;20184;-86
2022/08/28 11:00:07;;;;;;;7.60;7.00;;;26.50;59.20;;;;;;5034128;28;20212;-86
2022/08/28 11:02:33;;;;;;;7.70;7.20;;;26.50;61.00;;;;;;5028267;28;20192;-86
2022/08/28 11:04:58;;;;;;;8.02;7.43;;;26.40;61.40;;;;;;5020554;28;20181;-86
2022/08/28 11:07:33;;;;;;;9.18;8.05;;;26.10;63.50;;;;;;5034719;28;20216;-86
2022/08/28 11:10:39;;;;;;;8.65;7.85;;;26.10;62.50;;;;;;5016315;28;20162;-86
2022/08/28 11:13:07;;;;;;;8.35;7.60;;;26.20;62.10;;;;;;5029364;28;20247;-85
2022/08/28 11:15:32;;;;;;;8.68;8.07;;;26.20;63.40;;;;;;5032990;28;20192;-86
2022/08/28 11:18:33;;;;;;;7.65;7.10;;;26.10;63.10;;;;;;5032345;28;20184;-86
2022/08/28 11:21:14;;;;;;;8.55;7.75;;;26.10;62.60;;;;;;5025348;28;20711;-86
2022/08/28 11:23:49;;;;;;;9.02;8.25;;;26.10;62.50;;;;;;5024552;28;20193;-86
2022/08/28 11:26:42;;;;;;;8.38;7.75;;;26.40;60.40;;;;;;5026984;28;20271;-85
2022/08/28 11:29:08;;;;;;;7.47;6.93;;;26.60;60.00;;;;;;5000155;28;20193;-86
2022/08/28 11:31:37;;;;;;;8.45;7.47;;;26.70;60.30;;;;;;5036069;28;20201;-86
2022/08/28 11:34:05;;;;;;;7.43;6.82;;;27.10;57.70;;;;;;5026926;28;20216;-85
2022/08/28 11:36:31;;;;;;;8.20;7.47;;;27.40;56.10;;;;;;5028653;28;20415;-86
2022/08/28 11:39:01;;;;;;;8.82;7.95;;;27.60;55.10;;;;;;5033754;28;20197;-86
2022/08/28 11:41:37;;;;;;;7.45;6.95;;;27.60;54.80;;;;;;5027290;28;20201;-85
2022/08/28 11:44:09;;;;;;;8.52;7.82;;;27.80;54.80;;;;;;5023852;28;20251;-86
2022/08/28 11:46:47;;;;;;;7.97;7.38;;;28.10;54.30;;;;;;5028652;28;20644;-86
2022/08/28 11:49:25;;;;;;;8.07;7.30;;;28.10;52.90;;;;;;5022504;28;20224;-85
2022/08/28 11:52:09;;;;;;;7.90;7.30;;;28.30;52.50;;;;;;5026494;28;20228;-85
2022/08/28 11:55:12;;;;;;;7.65;7.05;;;28.30;54.20;;;;;;5022467;28;20869;-86
2022/08/28 11:57:56;;;;;;;8.13;7.35;;;28.30;54.90;;;;;;5034293;28;20192;-85
2022/08/28 12:00:25;;;;;;;8.25;7.55;;;28.20;54.50;;;;;;5019777;28;20694;-86
2022/08/28 12:02:53;;;;;;;8.50;7.70;;;28.30;53.90;;;;;;5028746;28;20270;-86
2022/08/28 12:05:30;;;;;;;8.52;7.88;;;27.60;55.90;;;;;;5031878;28;20235;-86
2022/08/28 12:07:57;;;;;;;8.15;7.45;;;27.50;56.80;;;;;;5022793;28;20193;-86
2022/08/28 12:10:23;;;;;;;7.55;7.00;;;27.60;56.10;;;;;;5025905;28;20212;-86
2022/08/28 12:12:57;;;;;;;8.18;7.50;;;27.40;55.90;;;;;;5020045;28;20196;-86
2022/08/28 12:15:26;;;;;;;8.85;8.25;;;27.40;55.70;;;;;;5030065;28;20195;-86
2022/08/28 12:17:55;;;;;;;9.82;8.98;;;27.50;54.70;;;;;;5033406;28;20716;-86
2022/08/28 12:20:28;;;;;;;8.68;7.85;;;27.50;55.30;;;;;;5034991;28;20209;-85
2022/08/28 12:23:00;;;;;;;8.30;7.47;;;27.80;54.30;;;;;;5034231;28;20197;-85
2022/08/28 12:25:38;;;;;;;7.90;7.30;;;28.40;52.60;;;;;;5025740;28;20177;-85
2022/08/28 12:28:24;;;;;;;8.18;7.47;;;28.90;50.90;;;;;;5031732;28;20191;-86
2022/08/28 12:31:19;;;;;;;8.32;7.63;;;29.30;51.20;;;;;;5027022;28;20960;-85
2022/08/28 12:34:02;;;;;;;8.23;7.38;;;29.40;49.70;;;;;;5028137;28;20564;-86
2022/08/28 12:36:27;;;;;;;8.15;7.45;;;29.50;49.40;;;;;;5030518;28;20193;-88
2022/08/28 12:38:57;;;;;;;8.90;8.13;;;29.80;48.20;;;;;;5025515;28;20189;-85
2022/08/28 12:41:23;;;;;;;8.60;7.90;;;30.00;48.10;;;;;;5028053;28;20231;-86
2022/08/28 12:43:55;;;;;;;8.63;7.95;;;30.10;48.00;;;;;;5029562;28;20242;-85
2022/08/28 12:46:36;;;;;;;8.35;7.55;;;30.20;47.20;;;;;;5024398;28;20195;-85
2022/08/28 12:49:23;;;;;;;7.53;6.90;;;30.00;45.30;;;;;;5033000;28;20235;-86
2022/08/28 12:51:49;;;;;;;8.52;7.82;;;29.60;47.60;;;;;;5029044;28;20232;-86
2022/08/28 12:54:16;;;;;;;7.75;7.18;;;29.70;47.20;;;;;;5029493;28;20231;-86
2022/08/28 12:56:42;;;;;;;7.35;6.80;;;30.10;47.40;;;;;;5023008;28;20169;-86
2022/08/28 12:59:31;;;;;;;8.50;7.90;;;30.40;45.30;;;;;;5026085;28;20191;-86
2022/08/28 13:02:22;;;;;;;8.50;7.80;;;31.00;45.30;;;;;;5030338;28;20215;-86
2022/08/28 13:05:00;;;;;;;8.20;7.60;;;31.00;43.60;;;;;;5022320;28;20236;-86
2022/08/28 13:07:29;;;;;;;8.48;7.78;;;31.10;43.20;;;;;;5032230;28;20188;-86